createdAt,value
2022-11-24T00:05:03.923Z,0.00
2022-11-24T00:10:35.800Z,0.00
2022-11-24T00:16:07.232Z,0.00
2022-11-24T00:21:39.294Z,1.00
2022-11-24T00:27:16.834Z,0.00
2022-11-24T00:32:54.683Z,0.00
2022-11-24T00:38:26.337Z,0.00
2022-11-24T00:43:58.860Z,0.00
2022-11-24T00:49:36.431Z,0.00
2022-11-24T00:55:14.292Z,0.00
2022-11-24T01:00:52.031Z,0.00
2022-11-24T01:06:29.805Z,0.00
2022-11-24T01:12:01.868Z,0.00
2022-11-24T01:17:33.488Z,0.00
2022-11-24T01:23:05.306Z,1.00
2022-11-24T01:28:47.038Z,0.00
2022-11-24T01:34:20.443Z,1.00
2022-11-24T01:39:52.294Z,0.00
2022-11-24T01:45:29.763Z,0.00
2022-11-24T01:51:01.574Z,0.00
2022-11-24T01:56:33.318Z,0.00
2022-11-24T02:02:11.002Z,0.00
2022-11-24T02:07:42.835Z,0.00
2022-11-24T02:13:20.627Z,1.00
2022-11-24T02:18:52.179Z,0.00
2022-11-24T02:24:23.761Z,0.00
2022-11-24T02:29:55.410Z,0.00
2022-11-24T02:37:48.419Z,0.00
2022-11-24T02:43:20.086Z,1.00
2022-11-24T02:48:57.689Z,0.00
2022-11-24T02:54:29.231Z,1.00
2022-11-24T03:00:07.151Z,0.00
2022-11-24T03:05:38.944Z,0.00
2022-11-24T03:11:10.618Z,0.00
2022-11-24T03:16:48.688Z,0.00
2022-11-24T03:22:26.128Z,0.00
2022-11-24T03:27:57.868Z,0.00
2022-11-24T03:33:29.909Z,0.00
2022-11-24T03:39:07.468Z,0.00
2022-11-24T03:44:39.225Z,1.00
2022-11-24T03:50:11.112Z,0.00
2022-11-24T03:55:48.674Z,0.00
2022-11-24T04:01:27.886Z,0.00
2022-11-24T04:07:05.545Z,0.00
2022-11-24T04:12:43.376Z,0.00
2022-11-24T04:18:21.351Z,0.00
2022-11-24T04:20:44.164Z,1.00
2022-11-24T04:26:14.940Z,0.00
2022-11-24T04:31:45.931Z,0.00
2022-11-24T04:37:24.575Z,0.00
2022-11-24T04:43:02.217Z,0.00
2022-11-24T04:48:39.613Z,1.00
2022-11-24T04:59:46.820Z,0.00
2022-11-24T05:05:24.672Z,0.00
2022-11-24T05:11:02.448Z,0.00
2022-11-24T05:16:34.231Z,0.00
2022-11-24T05:22:11.997Z,0.00
2022-11-24T05:27:49.399Z,0.00
2022-11-24T05:33:26.511Z,0.00
2022-11-24T05:39:03.891Z,0.00
2022-11-24T05:44:41.657Z,0.00
2022-11-24T05:50:21.240Z,0.00
2022-11-24T05:55:59.085Z,0.00
2022-11-24T06:01:37.012Z,1.00
2022-11-24T06:07:14.796Z,4.00
2022-11-24T06:12:46.468Z,10.00
2022-11-24T06:18:19.242Z,25.00
2022-11-24T06:26:11.520Z,60.00
2022-11-24T06:31:43.155Z,103.00
2022-11-24T06:37:14.910Z,163.00
2022-11-24T06:42:46.586Z,205.00
2022-11-24T06:48:18.529Z,284.00
2022-11-24T06:53:50.193Z,403.00
2022-11-24T06:59:21.873Z,600.00
2022-11-24T07:04:53.946Z,807.00
2022-11-24T07:10:25.615Z,1467.00
2022-11-24T07:15:57.320Z,1657.00
2022-11-24T07:21:29.175Z,1978.00
2022-11-24T07:27:01.005Z,3295.00
2022-11-24T07:32:32.791Z,5222.00
2022-11-24T07:38:04.622Z,6106.00
2022-11-24T07:43:36.374Z,6836.00
2022-11-24T07:49:14.201Z,9271.00
2022-11-24T07:54:45.996Z,11757.00
2022-11-24T08:00:19.837Z,10117.00
2022-11-24T08:11:29.351Z,9602.00
2022-11-24T08:17:01.107Z,10263.00
2022-11-24T08:22:38.462Z,15521.00
2022-11-24T08:28:10.449Z,14596.00
2022-11-24T08:33:42.119Z,16044.00
2022-11-24T08:39:13.817Z,14334.00
2022-11-24T08:44:45.659Z,11507.00
2022-11-24T08:50:23.454Z,11166.00
2022-11-24T08:55:55.286Z,10370.00
2022-11-24T09:01:27.318Z,10356.00
2022-11-24T09:06:58.978Z,9760.00
2022-11-24T09:12:30.961Z,8413.00
2022-11-24T09:18:02.819Z,7591.00
2022-11-24T09:23:34.386Z,9487.00
2022-11-24T09:29:06.167Z,11757.00
2022-11-24T09:34:37.920Z,8673.00
2022-11-24T09:40:09.911Z,10118.00
2022-11-24T09:46:05.083Z,9356.00
2022-11-24T09:51:19.951Z,8007.00
2022-11-24T09:56:58.354Z,9234.00
2022-11-24T10:02:30.174Z,10783.00
2022-11-24T10:08:02.225Z,10118.00
2022-11-24T10:13:34.626Z,8826.00
2022-11-24T10:19:08.351Z,7851.00
2022-11-24T10:24:40.233Z,5075.00
2022-11-24T10:30:12.320Z,3606.00
2022-11-24T10:35:43.992Z,3844.00
2022-11-24T10:41:15.811Z,4400.00
2022-11-24T10:46:48.120Z,4238.00
2022-11-24T10:52:20.086Z,5163.00
2022-11-24T10:57:51.991Z,9830.00
2022-11-24T11:03:23.939Z,13249.00
2022-11-24T11:09:01.995Z,13532.00
2022-11-24T11:14:33.979Z,9073.00
2022-11-24T11:20:06.300Z,7467.00
2022-11-24T11:25:37.742Z,6351.00
2022-11-24T11:31:19.187Z,7601.00
2022-11-24T11:39:04.774Z,8116.00
2022-11-24T11:44:36.766Z,5260.00
2022-11-24T11:50:08.414Z,4571.00
2022-11-24T11:55:41.993Z,4968.00
2022-11-24T12:01:11.921Z,5374.00
2022-11-24T12:06:43.326Z,10087.00
2022-11-24T12:12:15.195Z,9930.00
2022-11-24T12:17:46.949Z,6692.00
2022-11-24T12:23:18.431Z,4670.00
2022-11-24T12:28:56.040Z,6188.00
2022-11-24T12:34:27.845Z,5974.00
2022-11-24T12:39:59.687Z,6435.00
2022-11-24T12:45:37.681Z,5911.00
2022-11-24T12:51:09.330Z,5522.00
2022-11-24T12:56:46.878Z,4587.00
2022-11-24T13:02:18.456Z,4831.00
2022-11-24T13:13:27.858Z,6874.00
2022-11-24T13:18:59.727Z,5514.00
2022-11-24T13:24:31.483Z,5993.00
2022-11-24T13:35:36.942Z,5124.00
2022-11-24T13:41:28.136Z,3525.00
2022-11-24T13:46:43.778Z,2996.00
2022-11-24T13:52:21.370Z,2098.00
2022-11-24T13:57:53.157Z,5079.00
2022-11-24T14:03:24.620Z,8372.00
2022-11-24T14:08:56.341Z,3670.00
2022-11-24T14:14:34.377Z,1921.00
2022-11-24T14:25:49.412Z,1341.00
2022-11-24T14:31:27.301Z,712.00
2022-11-24T14:36:59.071Z,325.00
2022-11-24T14:42:36.672Z,395.00
2022-11-24T14:48:08.555Z,639.00
2022-11-24T14:53:40.383Z,731.00
2022-11-24T14:59:12.173Z,1439.00
2022-11-24T15:05:05.813Z,839.00
2022-11-24T15:10:21.812Z,552.00
2022-11-24T15:15:57.569Z,369.00
2022-11-24T15:21:25.021Z,264.00
2022-11-24T15:26:56.739Z,241.00
2022-11-24T15:32:34.356Z,150.00
2022-11-24T15:38:05.919Z,74.00
2022-11-24T15:43:37.701Z,33.00
2022-11-24T15:49:15.194Z,13.00
2022-11-24T15:54:46.623Z,5.00
2022-11-24T16:00:18.525Z,2.00
2022-11-24T16:05:50.210Z,1.00
2022-11-24T16:11:21.936Z,1.00
2022-11-24T16:16:53.875Z,0.00
2022-11-24T16:22:25.660Z,1.00
2022-11-24T16:27:57.370Z,0.00
2022-11-24T16:33:29.132Z,0.00
2022-11-24T16:39:01.029Z,1.00
2022-11-24T16:44:33.214Z,0.00
2022-11-24T16:50:04.577Z,1.00
2022-11-24T16:55:36.108Z,0.00
2022-11-24T17:01:07.810Z,0.00
2022-11-24T17:06:39.679Z,1.00
2022-11-24T17:12:11.699Z,1.00
2022-11-24T17:18:08.309Z,1.00
2022-11-24T17:23:15.345Z,0.00
2022-11-24T17:28:46.970Z,3.00
2022-11-24T17:34:18.692Z,3.00
2022-11-24T17:45:19.655Z,3.00
2022-11-24T17:50:51.559Z,4.00
2022-11-24T17:56:23.231Z,2.00
2022-11-24T18:07:24.529Z,0.00
2022-11-24T18:12:56.031Z,0.00
2022-11-24T18:18:27.794Z,0.00
2022-11-24T18:29:28.930Z,1.00
2022-11-24T18:35:00.699Z,1.00
2022-11-24T18:40:32.369Z,1.00
2022-11-24T18:46:04.316Z,0.00
2022-11-24T18:57:07.879Z,0.00
2022-11-24T19:02:39.722Z,0.00
2022-11-24T19:13:43.235Z,0.00
2022-11-24T19:24:48.776Z,1.00
2022-11-24T19:30:20.436Z,0.00
2022-11-24T19:36:00.883Z,0.00
2022-11-24T19:41:32.730Z,1.00
2022-11-24T19:47:04.585Z,1.00
2022-11-24T19:52:36.290Z,0.00
2022-11-24T20:03:37.193Z,1.00
2022-11-24T20:14:42.775Z,0.00
2022-11-24T20:20:14.748Z,1.00
2022-11-24T20:25:46.436Z,0.00
2022-11-24T20:36:51.910Z,0.00
2022-11-24T20:42:23.621Z,1.00
2022-11-24T20:53:24.909Z,0.00
2022-11-24T21:04:28.518Z,0.00
2022-11-24T21:10:00.337Z,0.00
2022-11-24T21:15:32.228Z,0.00
2022-11-24T21:21:03.854Z,0.00
2022-11-24T21:26:35.825Z,1.00
2022-11-24T21:32:07.724Z,0.00
2022-11-24T21:37:39.366Z,0.00
2022-11-24T21:43:11.001Z,0.00
2022-11-24T21:48:42.889Z,0.00
2022-11-24T21:54:14.529Z,0.00
2022-11-24T21:59:46.569Z,0.00
2022-11-24T22:07:39.389Z,0.00
2022-11-24T22:13:10.655Z,0.00
2022-11-24T22:18:42.253Z,0.00
2022-11-24T22:24:13.905Z,1.00
2022-11-24T22:29:49.986Z,1.00
2022-11-24T22:35:17.549Z,0.00
2022-11-24T22:46:21.151Z,1.00
2022-11-24T22:57:24.579Z,0.00
2022-11-24T23:02:56.288Z,1.00
2022-11-24T23:08:29.155Z,0.00
2022-11-24T23:14:00.854Z,1.00
2022-11-24T23:19:32.696Z,0.00
2022-11-24T23:25:10.290Z,0.00
2022-11-24T23:30:41.997Z,0.00
2022-11-24T23:36:19.868Z,1.00
2022-11-24T23:41:51.534Z,0.00
2022-11-24T23:47:23.256Z,1.00
2022-11-24T23:52:55.136Z,0.00
2022-11-24T23:58:26.442Z,0.00
